sensor_id;sensor_type;location;lat;lon;timestamp;pressure;altitude;pressure_sealevel;temperature;humidity
61898;BME280;47850;50.274;18.908;2023-08-24T00:01:09;98359.60;;;17.24;73.42
61898;BME280;47850;50.274;18.908;2023-08-24T00:03:39;98359.48;;;17.22;74.00
61898;BME280;47850;50.274;18.908;2023-08-24T00:06:07;98357.61;;;17.19;74.03
61898;BME280;47850;50.274;18.908;2023-08-24T00:08:34;98353.83;;;17.16;74.20
61898;BME280;47850;50.274;18.908;2023-08-24T00:11:02;98357.48;;;17.14;74.25
61898;BME280;47850;50.274;18.908;2023-08-24T00:13:30;98353.78;;;17.11;74.10
61898;BME280;47850;50.274;18.908;2023-08-24T00:15:57;98357.13;;;17.05;74.02
61898;BME280;47850;50.274;18.908;2023-08-24T00:18:25;98355.68;;;17.01;74.18
61898;BME280;47850;50.274;18.908;2023-08-24T00:20:53;98356.20;;;16.96;74.37
61898;BME280;47850;50.274;18.908;2023-08-24T00:23:21;98354.96;;;16.91;74.38
61898;BME280;47850;50.274;18.908;2023-08-24T00:25:48;98355.89;;;16.88;74.64
61898;BME280;47850;50.274;18.908;2023-08-24T00:28:16;98352.08;;;16.83;74.92
61898;BME280;47850;50.274;18.908;2023-08-24T00:30:44;98351.70;;;16.80;75.11
61898;BME280;47850;50.274;18.908;2023-08-24T00:33:11;98351.65;;;16.79;75.51
61898;BME280;47850;50.274;18.908;2023-08-24T00:35:39;98353.65;;;16.76;75.55
61898;BME280;47850;50.274;18.908;2023-08-24T00:38:07;98354.92;;;16.73;75.36
61898;BME280;47850;50.274;18.908;2023-08-24T00:40:34;98353.25;;;16.73;75.65
61898;BME280;47850;50.274;18.908;2023-08-24T00:43:02;98352.50;;;16.73;76.35
61898;BME280;47850;50.274;18.908;2023-08-24T00:45:30;98351.88;;;16.74;76.26
61898;BME280;47850;50.274;18.908;2023-08-24T00:47:58;98351.23;;;16.73;76.53
61898;BME280;47850;50.274;18.908;2023-08-24T00:50:25;98348.30;;;16.72;77.03
61898;BME280;47850;50.274;18.908;2023-08-24T00:52:54;98350.48;;;16.71;76.82
61898;BME280;47850;50.274;18.908;2023-08-24T00:55:21;98351.68;;;16.69;76.54
61898;BME280;47850;50.274;18.908;2023-08-24T00:57:49;98353.30;;;16.65;76.91
61898;BME280;47850;50.274;18.908;2023-08-24T01:00:18;98351.01;;;16.58;77.15
61898;BME280;47850;50.274;18.908;2023-08-24T01:02:46;98351.39;;;16.51;77.30
61898;BME280;47850;50.274;18.908;2023-08-24T01:05:14;98349.39;;;16.47;77.80
61898;BME280;47850;50.274;18.908;2023-08-24T01:07:41;98354.34;;;16.43;78.09
61898;BME280;47850;50.274;18.908;2023-08-24T01:10:09;98352.45;;;16.40;78.47
61898;BME280;47850;50.274;18.908;2023-08-24T01:15:19;98352.24;;;16.33;78.71
61898;BME280;47850;50.274;18.908;2023-08-24T01:17:48;98351.05;;;16.29;78.77
61898;BME280;47850;50.274;18.908;2023-08-24T01:20:17;98352.39;;;16.26;78.92
61898;BME280;47850;50.274;18.908;2023-08-24T01:25:17;98357.47;;;16.21;79.34
61898;BME280;47850;50.274;18.908;2023-08-24T01:27:48;98356.38;;;16.19;79.43
61898;BME280;47850;50.274;18.908;2023-08-24T01:30:17;98355.83;;;16.16;79.77
61898;BME280;47850;50.274;18.908;2023-08-24T01:32:45;98355.75;;;16.13;80.45
61898;BME280;47850;50.274;18.908;2023-08-24T01:35:13;98355.70;;;16.10;80.33
61898;BME280;47850;50.274;18.908;2023-08-24T01:37:40;98351.17;;;16.09;80.19
61898;BME280;47850;50.274;18.908;2023-08-24T01:40:20;98349.42;;;16.05;79.86
61898;BME280;47850;50.274;18.908;2023-08-24T01:42:51;98347.44;;;16.02;79.97
61898;BME280;47850;50.274;18.908;2023-08-24T01:45:22;98346.17;;;15.96;80.46
61898;BME280;47850;50.274;18.908;2023-08-24T01:47:50;98345.08;;;15.90;80.97
61898;BME280;47850;50.274;18.908;2023-08-24T01:50:19;98342.20;;;15.86;81.13
61898;BME280;47850;50.274;18.908;2023-08-24T01:52:48;98345.38;;;15.82;81.44
61898;BME280;47850;50.274;18.908;2023-08-24T01:55:19;98345.55;;;15.80;81.68
61898;BME280;47850;50.274;18.908;2023-08-24T01:57:48;98342.80;;;15.80;81.91
61898;BME280;47850;50.274;18.908;2023-08-24T02:00:15;98346.40;;;15.79;82.34
61898;BME280;47850;50.274;18.908;2023-08-24T02:02:45;98342.83;;;15.77;82.69
61898;BME280;47850;50.274;18.908;2023-08-24T02:05:13;98340.15;;;15.75;82.82
61898;BME280;47850;50.274;18.908;2023-08-24T02:07:41;98340.47;;;15.73;82.76
61898;BME280;47850;50.274;18.908;2023-08-24T02:10:09;98337.46;;;15.69;82.93
61898;BME280;47850;50.274;18.908;2023-08-24T02:12:36;98338.36;;;15.65;83.20
61898;BME280;47850;50.274;18.908;2023-08-24T02:15:04;98340.58;;;15.62;83.49
61898;BME280;47850;50.274;18.908;2023-08-24T02:17:32;98341.54;;;15.61;83.56
61898;BME280;47850;50.274;18.908;2023-08-24T02:20:01;98347.84;;;15.58;83.72
61898;BME280;47850;50.274;18.908;2023-08-24T02:22:29;98345.50;;;15.56;83.72
61898;BME280;47850;50.274;18.908;2023-08-24T02:24:57;98345.88;;;15.53;83.96
61898;BME280;47850;50.274;18.908;2023-08-24T02:27:25;98344.60;;;15.49;84.10
61898;BME280;47850;50.274;18.908;2023-08-24T02:29:53;98336.57;;;15.46;84.33
61898;BME280;47850;50.274;18.908;2023-08-24T02:32:20;98334.87;;;15.43;84.70
61898;BME280;47850;50.274;18.908;2023-08-24T02:34:48;98334.98;;;15.42;84.68
61898;BME280;47850;50.274;18.908;2023-08-24T02:37:16;98335.23;;;15.40;84.47
61898;BME280;47850;50.274;18.908;2023-08-24T02:39:43;98333.84;;;15.38;84.80
61898;BME280;47850;50.274;18.908;2023-08-24T02:42:11;98335.69;;;15.38;84.85
61898;BME280;47850;50.274;18.908;2023-08-24T02:44:39;98334.05;;;15.38;85.20
61898;BME280;47850;50.274;18.908;2023-08-24T02:47:06;98337.16;;;15.39;85.22
61898;BME280;47850;50.274;18.908;2023-08-24T02:49:34;98333.66;;;15.40;84.96
61898;BME280;47850;50.274;18.908;2023-08-24T02:52:02;98336.14;;;15.39;84.54
61898;BME280;47850;50.274;18.908;2023-08-24T02:54:30;98339.30;;;15.37;84.51
61898;BME280;47850;50.274;18.908;2023-08-24T02:56:57;98339.45;;;15.34;84.63
61898;BME280;47850;50.274;18.908;2023-08-24T02:59:25;98340.04;;;15.30;84.88
61898;BME280;47850;50.274;18.908;2023-08-24T03:01:53;98338.57;;;15.26;85.30
61898;BME280;47850;50.274;18.908;2023-08-24T03:04:21;98337.85;;;15.22;85.76
61898;BME280;47850;50.274;18.908;2023-08-24T03:06:49;98334.19;;;15.21;85.78
61898;BME280;47850;50.274;18.908;2023-08-24T03:09:16;98337.54;;;15.20;85.53
61898;BME280;47850;50.274;18.908;2023-08-24T03:11:44;98334.83;;;15.19;85.76
61898;BME280;47850;50.274;18.908;2023-08-24T03:14:11;98340.31;;;15.13;85.77
61898;BME280;47850;50.274;18.908;2023-08-24T03:16:39;98336.83;;;15.07;86.10
61898;BME280;47850;50.274;18.908;2023-08-24T03:19:07;98341.21;;;15.01;86.43
61898;BME280;47850;50.274;18.908;2023-08-24T03:21:34;98341.24;;;14.95;86.61
61898;BME280;47850;50.274;18.908;2023-08-24T03:24:02;98342.22;;;14.91;86.91
61898;BME280;47850;50.274;18.908;2023-08-24T03:26:31;98342.36;;;14.88;86.83
61898;BME280;47850;50.274;18.908;2023-08-24T03:28:59;98343.98;;;14.87;86.94
61898;BME280;47850;50.274;18.908;2023-08-24T03:31:27;98343.44;;;14.85;87.21
61898;BME280;47850;50.274;18.908;2023-08-24T03:33:54;98341.75;;;14.81;87.44
61898;BME280;47850;50.274;18.908;2023-08-24T03:36:22;98341.13;;;14.78;87.57
61898;BME280;47850;50.274;18.908;2023-08-24T03:38:50;98338.75;;;14.75;87.73
61898;BME280;47850;50.274;18.908;2023-08-24T03:41:17;98338.38;;;14.71;87.78
61898;BME280;47850;50.274;18.908;2023-08-24T03:43:45;98338.86;;;14.65;87.90
61898;BME280;47850;50.274;18.908;2023-08-24T03:46:13;98341.01;;;14.63;88.23
61898;BME280;47850;50.274;18.908;2023-08-24T03:48:40;98341.49;;;14.62;88.24
61898;BME280;47850;50.274;18.908;2023-08-24T03:51:08;98349.48;;;14.61;88.31
61898;BME280;47850;50.274;18.908;2023-08-24T03:53:35;98348.45;;;14.61;88.30
61898;BME280;47850;50.274;18.908;2023-08-24T03:56:03;98349.92;;;14.60;88.41
61898;BME280;47850;50.274;18.908;2023-08-24T03:58:31;98350.05;;;14.60;88.81
61898;BME280;47850;50.274;18.908;2023-08-24T04:00:58;98350.91;;;14.59;88.99
61898;BME280;47850;50.274;18.908;2023-08-24T04:03:26;98351.22;;;14.59;89.36
61898;BME280;47850;50.274;18.908;2023-08-24T04:05:55;98344.73;;;14.60;89.45
61898;BME280;47850;50.274;18.908;2023-08-24T04:08:23;98345.77;;;14.63;89.63
61898;BME280;47850;50.274;18.908;2023-08-24T04:10:51;98346.29;;;14.66;89.65
61898;BME280;47850;50.274;18.908;2023-08-24T04:13:18;98344.72;;;14.68;89.33
61898;BME280;47850;50.274;18.908;2023-08-24T04:15:46;98350.45;;;14.69;89.58
61898;BME280;47850;50.274;18.908;2023-08-24T04:18:13;98350.89;;;14.70;89.55
61898;BME280;47850;50.274;18.908;2023-08-24T04:20:41;98355.61;;;14.73;89.61
61898;BME280;47850;50.274;18.908;2023-08-24T04:23:09;98355.40;;;14.76;89.69
61898;BME280;47850;50.274;18.908;2023-08-24T04:25:39;98356.11;;;14.81;89.68
61898;BME280;47850;50.274;18.908;2023-08-24T04:28:06;98355.43;;;14.84;89.56
61898;BME280;47850;50.274;18.908;2023-08-24T04:30:34;98361.46;;;14.89;89.54
61898;BME280;47850;50.274;18.908;2023-08-24T04:33:02;98358.55;;;14.94;89.33
61898;BME280;47850;50.274;18.908;2023-08-24T04:35:33;98358.15;;;14.98;89.39
61898;BME280;47850;50.274;18.908;2023-08-24T04:38:01;98357.58;;;15.03;89.50
61898;BME280;47850;50.274;18.908;2023-08-24T04:40:29;98356.73;;;15.08;89.53
61898;BME280;47850;50.274;18.908;2023-08-24T04:42:56;98355.89;;;15.14;89.55
61898;BME280;47850;50.274;18.908;2023-08-24T04:45:24;98354.20;;;15.21;89.47
61898;BME280;47850;50.274;18.908;2023-08-24T04:47:52;98356.27;;;15.27;89.20
61898;BME280;47850;50.274;18.908;2023-08-24T04:50:19;98357.76;;;15.32;89.17
61898;BME280;47850;50.274;18.908;2023-08-24T04:52:47;98354.55;;;15.40;89.19
61898;BME280;47850;50.274;18.908;2023-08-24T04:55:15;98354.37;;;15.47;88.88
61898;BME280;47850;50.274;18.908;2023-08-24T04:57:42;98354.98;;;15.58;88.55
61898;BME280;47850;50.274;18.908;2023-08-24T05:00:10;98356.50;;;15.67;87.99
61898;BME280;47850;50.274;18.908;2023-08-24T05:02:43;98359.42;;;15.79;87.65
61898;BME280;47850;50.274;18.908;2023-08-24T05:05:11;98361.24;;;15.89;87.33
61898;BME280;47850;50.274;18.908;2023-08-24T05:07:38;98357.95;;;15.98;87.14
61898;BME280;47850;50.274;18.908;2023-08-24T05:10:06;98359.54;;;16.07;86.96
61898;BME280;47850;50.274;18.908;2023-08-24T05:12:34;98360.36;;;16.15;86.81
61898;BME280;47850;50.274;18.908;2023-08-24T05:15:03;98363.33;;;16.23;86.73
61898;BME280;47850;50.274;18.908;2023-08-24T05:17:31;98362.19;;;16.31;86.65
61898;BME280;47850;50.274;18.908;2023-08-24T05:19:59;98366.21;;;16.37;86.44
61898;BME280;47850;50.274;18.908;2023-08-24T05:22:27;98370.40;;;16.44;86.27
61898;BME280;47850;50.274;18.908;2023-08-24T05:24:54;98375.78;;;16.52;86.31
61898;BME280;47850;50.274;18.908;2023-08-24T05:27:22;98376.97;;;16.58;86.26
61898;BME280;47850;50.274;18.908;2023-08-24T05:29:49;98377.26;;;16.63;86.17
61898;BME280;47850;50.274;18.908;2023-08-24T05:32:17;98377.95;;;16.69;85.90
61898;BME280;47850;50.274;18.908;2023-08-24T05:34:45;98379.58;;;16.74;85.86
61898;BME280;47850;50.274;18.908;2023-08-24T05:37:13;98382.13;;;16.79;85.69
61898;BME280;47850;50.274;18.908;2023-08-24T05:39:40;98382.70;;;16.83;85.13
61898;BME280;47850;50.274;18.908;2023-08-24T05:42:08;98385.77;;;16.86;84.49
61898;BME280;47850;50.274;18.908;2023-08-24T05:44:36;98384.69;;;16.90;84.01
61898;BME280;47850;50.274;18.908;2023-08-24T05:47:04;98381.35;;;16.95;83.51
61898;BME280;47850;50.274;18.908;2023-08-24T05:49:32;98381.64;;;17.00;83.27
61898;BME280;47850;50.274;18.908;2023-08-24T05:52:00;98378.94;;;17.05;83.08
61898;BME280;47850;50.274;18.908;2023-08-24T05:54:29;98374.84;;;17.12;82.83
61898;BME280;47850;50.274;18.908;2023-08-24T05:56:56;98382.50;;;17.20;82.51
61898;BME280;47850;50.274;18.908;2023-08-24T05:59:27;98379.44;;;17.28;82.43
61898;BME280;47850;50.274;18.908;2023-08-24T06:01:55;98382.10;;;17.34;81.85
61898;BME280;47850;50.274;18.908;2023-08-24T06:04:23;98385.23;;;17.40;81.69
61898;BME280;47850;50.274;18.908;2023-08-24T06:06:50;98386.52;;;17.45;81.41
61898;BME280;47850;50.274;18.908;2023-08-24T06:09:18;98385.33;;;17.51;81.22
61898;BME280;47850;50.274;18.908;2023-08-24T06:11:46;98385.65;;;17.56;80.65
61898;BME280;47850;50.274;18.908;2023-08-24T06:14:14;98391.17;;;17.64;80.60
61898;BME280;47850;50.274;18.908;2023-08-24T06:16:42;98394.11;;;17.72;79.68
61898;BME280;47850;50.274;18.908;2023-08-24T06:19:10;98391.52;;;17.76;78.83
61898;BME280;47850;50.274;18.908;2023-08-24T06:21:38;98394.95;;;17.82;78.67
61898;BME280;47850;50.274;18.908;2023-08-24T06:24:05;98401.08;;;17.89;78.37
61898;BME280;47850;50.274;18.908;2023-08-24T06:26:33;98399.42;;;17.95;77.96
61898;BME280;47850;50.274;18.908;2023-08-24T06:29:01;98402.70;;;18.01;77.54
61898;BME280;47850;50.274;18.908;2023-08-24T06:31:28;98396.34;;;18.07;77.60
61898;BME280;47850;50.274;18.908;2023-08-24T06:34:00;98393.90;;;18.15;77.59
61898;BME280;47850;50.274;18.908;2023-08-24T06:36:28;98395.00;;;18.23;77.25
61898;BME280;47850;50.274;18.908;2023-08-24T06:38:59;98390.09;;;18.30;76.80
61898;BME280;47850;50.274;18.908;2023-08-24T06:41:27;98389.77;;;18.39;76.53
61898;BME280;47850;50.274;18.908;2023-08-24T06:43:54;98390.09;;;18.48;76.30
61898;BME280;47850;50.274;18.908;2023-08-24T06:46:25;98386.92;;;18.57;76.20
61898;BME280;47850;50.274;18.908;2023-08-24T06:48:53;98391.04;;;18.65;75.78
61898;BME280;47850;50.274;18.908;2023-08-24T06:51:20;98391.88;;;18.74;75.68
61898;BME280;47850;50.274;18.908;2023-08-24T06:53:48;98389.64;;;18.82;75.70
61898;BME280;47850;50.274;18.908;2023-08-24T06:56:16;98389.02;;;18.91;75.66
61898;BME280;47850;50.274;18.908;2023-08-24T06:58:45;98386.67;;;19.01;75.26
61898;BME280;47850;50.274;18.908;2023-08-24T07:01:12;98385.09;;;19.11;74.88
61898;BME280;47850;50.274;18.908;2023-08-24T07:03:40;98386.73;;;19.21;74.40
61898;BME280;47850;50.274;18.908;2023-08-24T07:06:08;98389.01;;;19.30;74.11
61898;BME280;47850;50.274;18.908;2023-08-24T07:08:35;98385.13;;;19.40;74.41
61898;BME280;47850;50.274;18.908;2023-08-24T07:11:03;98386.48;;;19.52;74.15
61898;BME280;47850;50.274;18.908;2023-08-24T07:13:31;98387.86;;;19.62;73.78
61898;BME280;47850;50.274;18.908;2023-08-24T07:15:59;98389.45;;;19.70;73.03
61898;BME280;47850;50.274;18.908;2023-08-24T07:18:29;98383.88;;;19.78;72.61
61898;BME280;47850;50.274;18.908;2023-08-24T07:20:57;98387.81;;;19.87;72.47
61898;BME280;47850;50.274;18.908;2023-08-24T07:23:25;98387.20;;;19.95;72.36
61898;BME280;47850;50.274;18.908;2023-08-24T07:25:53;98385.97;;;20.04;71.89
61898;BME280;47850;50.274;18.908;2023-08-24T07:28:21;98386.88;;;20.15;71.70
61898;BME280;47850;50.274;18.908;2023-08-24T07:30:49;98384.36;;;20.23;71.22
61898;BME280;47850;50.274;18.908;2023-08-24T07:33:16;98387.70;;;20.33;71.20
61898;BME280;47850;50.274;18.908;2023-08-24T07:35:44;98389.55;;;20.43;71.21
61898;BME280;47850;50.274;18.908;2023-08-24T07:38:12;98393.21;;;20.54;71.43
61898;BME280;47850;50.274;18.908;2023-08-24T07:40:40;98392.23;;;20.66;70.95
61898;BME280;47850;50.274;18.908;2023-08-24T07:43:07;98392.79;;;20.73;70.22
61898;BME280;47850;50.274;18.908;2023-08-24T07:45:39;98396.83;;;20.82;69.72
61898;BME280;47850;50.274;18.908;2023-08-24T07:48:08;98398.00;;;20.90;68.52
61898;BME280;47850;50.274;18.908;2023-08-24T07:50:35;98400.13;;;20.99;68.47
61898;BME280;47850;50.274;18.908;2023-08-24T07:53:03;98398.60;;;21.05;67.79
61898;BME280;47850;50.274;18.908;2023-08-24T07:55:32;98402.38;;;21.12;68.15
61898;BME280;47850;50.274;18.908;2023-08-24T07:57:59;98398.55;;;21.20;67.68
61898;BME280;47850;50.274;18.908;2023-08-24T08:00:27;98397.44;;;21.31;67.32
61898;BME280;47850;50.274;18.908;2023-08-24T08:02:55;98397.89;;;21.41;67.35
61898;BME280;47850;50.274;18.908;2023-08-24T08:05:23;98398.59;;;21.50;67.21
61898;BME280;47850;50.274;18.908;2023-08-24T08:07:51;98404.27;;;21.57;66.87
61898;BME280;47850;50.274;18.908;2023-08-24T08:10:19;98403.62;;;21.65;66.77
61898;BME280;47850;50.274;18.908;2023-08-24T08:12:48;98403.24;;;21.72;66.01
61898;BME280;47850;50.274;18.908;2023-08-24T08:15:16;98407.95;;;21.77;65.20
61898;BME280;47850;50.274;18.908;2023-08-24T08:17:43;98406.16;;;21.82;63.96
61898;BME280;47850;50.274;18.908;2023-08-24T08:20:13;98405.40;;;21.89;63.23
61898;BME280;47850;50.274;18.908;2023-08-24T08:22:41;98405.59;;;21.97;63.62
61898;BME280;47850;50.274;18.908;2023-08-24T08:25:08;98404.42;;;22.06;63.56
61898;BME280;47850;50.274;18.908;2023-08-24T08:27:36;98405.98;;;22.15;63.42
61898;BME280;47850;50.274;18.908;2023-08-24T08:30:04;98406.09;;;22.24;63.62
61898;BME280;47850;50.274;18.908;2023-08-24T08:32:32;98403.95;;;22.32;62.94
61898;BME280;47850;50.274;18.908;2023-08-24T08:35:00;98403.35;;;22.40;62.42
61898;BME280;47850;50.274;18.908;2023-08-24T08:37:30;98404.34;;;22.46;58.93
61898;BME280;47850;50.274;18.908;2023-08-24T08:39:57;98408.25;;;22.54;57.41
61898;BME280;47850;50.274;18.908;2023-08-24T08:42:25;98403.73;;;22.63;56.80
61898;BME280;47850;50.274;18.908;2023-08-24T08:44:53;98397.46;;;22.72;55.64
61898;BME280;47850;50.274;18.908;2023-08-24T08:47:22;98397.64;;;22.82;54.01
61898;BME280;47850;50.274;18.908;2023-08-24T08:49:50;98400.19;;;22.91;53.36
61898;BME280;47850;50.274;18.908;2023-08-24T08:52:19;98403.61;;;23.01;52.11
61898;BME280;47850;50.274;18.908;2023-08-24T08:54:47;98404.39;;;23.09;51.33
61898;BME280;47850;50.274;18.908;2023-08-24T08:57:15;98404.81;;;23.19;50.69
61898;BME280;47850;50.274;18.908;2023-08-24T08:59:44;98402.41;;;23.27;50.41
61898;BME280;47850;50.274;18.908;2023-08-24T09:02:13;98405.52;;;23.36;49.26
61898;BME280;47850;50.274;18.908;2023-08-24T09:04:42;98403.59;;;23.42;48.20
61898;BME280;47850;50.274;18.908;2023-08-24T09:07:14;98401.42;;;23.51;47.99
61898;BME280;47850;50.274;18.908;2023-08-24T09:09:43;98397.74;;;23.59;47.71
61898;BME280;47850;50.274;18.908;2023-08-24T09:12:10;98402.65;;;23.66;48.11
61898;BME280;47850;50.274;18.908;2023-08-24T09:14:38;98403.83;;;23.73;47.32
61898;BME280;47850;50.274;18.908;2023-08-24T09:17:07;98402.06;;;23.81;47.10
61898;BME280;47850;50.274;18.908;2023-08-24T09:19:35;98400.36;;;23.88;46.16
61898;BME280;47850;50.274;18.908;2023-08-24T09:22:06;98399.95;;;23.96;45.51
61898;BME280;47850;50.274;18.908;2023-08-24T09:24:35;98394.27;;;24.05;45.99
61898;BME280;47850;50.274;18.908;2023-08-24T09:27:05;98394.60;;;24.18;44.82
61898;BME280;47850;50.274;18.908;2023-08-24T09:29:41;98393.38;;;24.27;44.32
61898;BME280;47850;50.274;18.908;2023-08-24T09:32:09;98391.08;;;24.40;44.01
61898;BME280;47850;50.274;18.908;2023-08-24T09:34:36;98393.95;;;24.51;43.51
61898;BME280;47850;50.274;18.908;2023-08-24T09:37:04;98385.94;;;24.57;42.43
61898;BME280;47850;50.274;18.908;2023-08-24T09:39:32;98383.25;;;24.67;42.45
61898;BME280;47850;50.274;18.908;2023-08-24T09:42:00;98386.39;;;24.77;42.78
61898;BME280;47850;50.274;18.908;2023-08-24T09:44:31;98382.08;;;24.88;43.33
61898;BME280;47850;50.274;18.908;2023-08-24T09:46:58;98384.54;;;24.97;43.68
61898;BME280;47850;50.274;18.908;2023-08-24T09:49:27;98383.45;;;25.05;42.83
61898;BME280;47850;50.274;18.908;2023-08-24T09:51:56;98384.44;;;25.10;42.59
61898;BME280;47850;50.274;18.908;2023-08-24T09:54:27;98375.73;;;25.10;42.39
61898;BME280;47850;50.274;18.908;2023-08-24T09:56:55;98372.83;;;25.15;42.75
61898;BME280;47850;50.274;18.908;2023-08-24T09:59:26;98375.45;;;25.24;42.98
61898;BME280;47850;50.274;18.908;2023-08-24T10:01:55;98376.59;;;25.30;42.09
61898;BME280;47850;50.274;18.908;2023-08-24T10:04:34;98376.52;;;25.30;41.89
61898;BME280;47850;50.274;18.908;2023-08-24T10:07:05;98377.20;;;25.33;42.13
61898;BME280;47850;50.274;18.908;2023-08-24T10:09:43;98375.23;;;25.42;43.48
61898;BME280;47850;50.274;18.908;2023-08-24T10:12:11;98374.67;;;25.57;43.54
61898;BME280;47850;50.274;18.908;2023-08-24T10:14:44;98371.40;;;25.63;42.48
61898;BME280;47850;50.274;18.908;2023-08-24T10:17:14;98373.06;;;25.65;43.08
61898;BME280;47850;50.274;18.908;2023-08-24T10:19:42;98370.30;;;25.68;42.10
61898;BME280;47850;50.274;18.908;2023-08-24T10:22:11;98367.50;;;25.76;41.94
61898;BME280;47850;50.274;18.908;2023-08-24T10:24:39;98367.46;;;25.86;41.15
61898;BME280;47850;50.274;18.908;2023-08-24T10:27:07;98361.63;;;25.92;40.53
61898;BME280;47850;50.274;18.908;2023-08-24T10:29:36;98362.35;;;26.00;41.25
61898;BME280;47850;50.274;18.908;2023-08-24T10:32:04;98362.67;;;26.14;41.50
61898;BME280;47850;50.274;18.908;2023-08-24T10:34:32;98364.45;;;26.23;39.96
61898;BME280;47850;50.274;18.908;2023-08-24T10:37:09;98359.51;;;26.23;40.18
61898;BME280;47850;50.274;18.908;2023-08-24T10:39:43;98358.04;;;26.32;40.26
61898;BME280;47850;50.274;18.908;2023-08-24T10:42:11;98359.70;;;26.43;39.57
61898;BME280;47850;50.274;18.908;2023-08-24T10:44:39;98360.30;;;26.56;39.35
61898;BME280;47850;50.274;18.908;2023-08-24T10:49:35;98361.86;;;26.80;39.44
61898;BME280;47850;50.274;18.908;2023-08-24T10:52:19;98361.46;;;26.90;38.76
61898;BME280;47850;50.274;18.908;2023-08-24T10:54:48;98362.44;;;26.94;37.81
61898;BME280;47850;50.274;18.908;2023-08-24T10:57:25;98356.15;;;26.87;36.95
61898;BME280;47850;50.274;18.908;2023-08-24T10:59:59;98349.15;;;26.75;36.91
61898;BME280;47850;50.274;18.908;2023-08-24T11:02:27;98348.21;;;26.78;38.11
61898;BME280;47850;50.274;18.908;2023-08-24T11:05:14;98339.66;;;26.98;37.91
61898;BME280;47850;50.274;18.908;2023-08-24T11:07:49;98329.98;;;27.12;36.77
61898;BME280;47850;50.274;18.908;2023-08-24T11:10:18;98328.45;;;27.21;37.32
61898;BME280;47850;50.274;18.908;2023-08-24T11:15:32;98326.02;;;27.58;37.02
61898;BME280;47850;50.274;18.908;2023-08-24T11:18:13;98324.50;;;27.77;36.47
61898;BME280;47850;50.274;18.908;2023-08-24T11:20:45;98328.10;;;27.86;36.50
61898;BME280;47850;50.274;18.908;2023-08-24T11:23:14;98321.95;;;28.00;36.13
61898;BME280;47850;50.274;18.908;2023-08-24T11:25:42;98318.70;;;28.06;35.80
61898;BME280;47850;50.274;18.908;2023-08-24T11:28:10;98317.24;;;28.25;36.16
61898;BME280;47850;50.274;18.908;2023-08-24T11:30:37;98316.20;;;28.53;35.71
61898;BME280;47850;50.274;18.908;2023-08-24T11:33:05;98313.40;;;28.73;35.13
61898;BME280;47850;50.274;18.908;2023-08-24T11:35:36;98312.81;;;28.84;34.39
61898;BME280;47850;50.274;18.908;2023-08-24T11:38:04;98309.81;;;28.91;35.14
61898;BME280;47850;50.274;18.908;2023-08-24T11:40:32;98306.35;;;29.22;35.50
61898;BME280;47850;50.274;18.908;2023-08-24T11:43:00;98308.26;;;29.59;34.19
61898;BME280;47850;50.274;18.908;2023-08-24T11:45:31;98306.79;;;29.84;33.52
61898;BME280;47850;50.274;18.908;2023-08-24T11:48:00;98301.14;;;30.00;32.75
61898;BME280;47850;50.274;18.908;2023-08-24T11:50:28;98304.13;;;30.09;32.37
61898;BME280;47850;50.274;18.908;2023-08-24T11:52:56;98298.52;;;30.17;32.44
61898;BME280;47850;50.274;18.908;2023-08-24T11:55:24;98293.95;;;30.39;31.96
61898;BME280;47850;50.274;18.908;2023-08-24T11:57:52;98293.79;;;30.58;31.57
61898;BME280;47850;50.274;18.908;2023-08-24T12:00:20;98294.98;;;30.61;31.94
61898;BME280;47850;50.274;18.908;2023-08-24T12:02:48;98294.67;;;30.75;31.97
61898;BME280;47850;50.274;18.908;2023-08-24T12:05:20;98297.12;;;30.93;32.04
61898;BME280;47850;50.274;18.908;2023-08-24T12:07:48;98292.98;;;31.01;31.96
61898;BME280;47850;50.274;18.908;2023-08-24T12:10:17;98289.91;;;31.16;31.46
61898;BME280;47850;50.274;18.908;2023-08-24T12:12:48;98289.52;;;31.36;31.70
61898;BME280;47850;50.274;18.908;2023-08-24T12:15:16;98291.92;;;31.54;31.55
61898;BME280;47850;50.274;18.908;2023-08-24T12:17:45;98287.98;;;31.69;30.88
61898;BME280;47850;50.274;18.908;2023-08-24T12:20:17;98289.66;;;31.94;30.37
61898;BME280;47850;50.274;18.908;2023-08-24T12:22:52;98284.52;;;32.20;29.90
61898;BME280;47850;50.274;18.908;2023-08-24T12:25:24;98287.80;;;32.41;29.45
61898;BME280;47850;50.274;18.908;2023-08-24T12:27:52;98291.59;;;32.33;29.66
61898;BME280;47850;50.274;18.908;2023-08-24T12:30:20;98286.21;;;32.50;29.24
61898;BME280;47850;50.274;18.908;2023-08-24T12:32:48;98281.88;;;32.74;28.84
61898;BME280;47850;50.274;18.908;2023-08-24T12:35:18;98274.91;;;32.97;28.39
61898;BME280;47850;50.274;18.908;2023-08-24T12:37:45;98271.15;;;32.89;28.84
61898;BME280;47850;50.274;18.908;2023-08-24T12:40:13;98265.37;;;32.79;28.40
61898;BME280;47850;50.274;18.908;2023-08-24T12:42:41;98267.80;;;32.63;29.09
61898;BME280;47850;50.274;18.908;2023-08-24T12:45:08;98265.24;;;32.58;28.97
61898;BME280;47850;50.274;18.908;2023-08-24T12:47:36;98261.73;;;32.71;29.06
61898;BME280;47850;50.274;18.908;2023-08-24T12:50:05;98262.63;;;33.00;28.59
61898;BME280;47850;50.274;18.908;2023-08-24T12:52:35;98261.02;;;33.09;28.25
61898;BME280;47850;50.274;18.908;2023-08-24T12:55:03;98252.32;;;33.27;28.03
61898;BME280;47850;50.274;18.908;2023-08-24T12:57:31;98254.45;;;33.41;27.22
61898;BME280;47850;50.274;18.908;2023-08-24T12:59:59;98256.70;;;33.52;27.00
61898;BME280;47850;50.274;18.908;2023-08-24T13:02:27;98246.50;;;33.54;26.51
61898;BME280;47850;50.274;18.908;2023-08-24T13:04:54;98244.73;;;33.63;26.88
61898;BME280;47850;50.274;18.908;2023-08-24T13:07:22;98237.86;;;33.93;26.53